createdAt,value
2017-11-13T00:02:09.085Z,1.47
2017-11-13T00:04:36.547Z,1.93
2017-11-13T00:07:04.001Z,1.20
2017-11-13T00:09:31.458Z,1.27
2017-11-13T00:11:58.935Z,1.23
2017-11-13T00:14:26.467Z,1.30
2017-11-13T00:16:53.949Z,1.37
2017-11-13T00:19:21.417Z,1.40
2017-11-13T00:21:48.903Z,1.30
2017-11-13T00:24:16.395Z,1.43
2017-11-13T00:26:43.881Z,1.30
2017-11-13T00:29:11.366Z,1.40
2017-11-13T00:31:38.820Z,1.40
2017-11-13T00:34:06.349Z,1.30
2017-11-13T00:36:33.828Z,1.40
2017-11-13T00:39:01.285Z,2.17
2017-11-13T00:41:28.735Z,1.47
2017-11-13T00:43:56.244Z,1.10
2017-11-13T00:46:23.711Z,1.40
2017-11-13T00:48:51.163Z,1.60
2017-11-13T00:51:18.647Z,2.10
2017-11-13T00:53:46.666Z,1.70
2017-11-13T00:56:14.138Z,1.67
2017-11-13T00:58:41.620Z,1.60
2017-11-13T01:01:09.083Z,1.70
2017-11-13T01:03:36.542Z,1.73
2017-11-13T01:06:04.017Z,1.50
2017-11-13T01:08:31.483Z,1.80
2017-11-13T01:10:58.939Z,1.40
2017-11-13T01:13:26.437Z,1.83
2017-11-13T01:15:53.897Z,2.40
2017-11-13T01:18:21.367Z,2.07
2017-11-13T01:20:48.868Z,1.87
2017-11-13T01:23:17.056Z,2.10
2017-11-13T01:25:44.579Z,1.97
2017-11-13T01:28:12.065Z,1.33
2017-11-13T01:30:39.560Z,1.53
2017-11-13T01:33:07.072Z,2.20
2017-11-13T01:35:34.553Z,1.60
2017-11-13T01:38:02.069Z,2.07
2017-11-13T01:40:29.627Z,1.67
2017-11-13T01:42:57.113Z,1.70
2017-11-13T01:45:25.432Z,2.07
2017-11-13T01:47:53.493Z,1.73
2017-11-13T01:50:21.003Z,1.97
2017-11-13T01:52:48.507Z,1.80
2017-11-13T01:55:16.009Z,1.80
2017-11-13T01:57:43.498Z,1.70
2017-11-13T02:00:11.010Z,2.20
2017-11-13T02:02:38.506Z,1.87
2017-11-13T02:05:05.999Z,2.10
2017-11-13T02:07:33.495Z,1.80
2017-11-13T02:10:00.979Z,2.10
2017-11-13T02:12:28.489Z,1.80
2017-11-13T02:14:56.022Z,1.27
2017-11-13T02:17:23.531Z,1.60
2017-11-13T02:19:51.067Z,1.60
2017-11-13T02:22:18.633Z,1.70
2017-11-13T02:24:46.144Z,1.20
2017-11-13T02:27:13.684Z,1.60
2017-11-13T02:29:41.177Z,1.50
2017-11-13T02:32:08.715Z,1.47
2017-11-13T02:34:36.179Z,1.00
2017-11-13T02:37:03.645Z,3.90
2017-11-13T02:39:31.107Z,1.07
2017-11-13T02:41:58.596Z,1.40
2017-11-13T02:44:27.068Z,1.50
2017-11-13T02:46:54.548Z,1.43
2017-11-13T02:49:22.020Z,1.50
2017-11-13T02:51:49.486Z,1.10
2017-11-13T02:54:16.936Z,1.50
2017-11-13T02:56:44.479Z,1.70
2017-11-13T02:59:11.938Z,1.60
2017-11-13T03:01:39.427Z,1.80
2017-11-13T03:04:06.984Z,1.73
2017-11-13T03:06:34.494Z,1.93
2017-11-13T03:09:01.971Z,1.50
2017-11-13T03:11:29.447Z,1.73
2017-11-13T03:13:56.919Z,1.90
2017-11-13T03:16:24.376Z,1.70
2017-11-13T03:18:51.869Z,1.87
2017-11-13T03:21:19.328Z,1.90
2017-11-13T03:23:46.792Z,1.50
2017-11-13T03:26:14.268Z,1.80
2017-11-13T03:28:41.718Z,1.50
2017-11-13T03:31:09.183Z,1.30
2017-11-13T03:33:36.681Z,1.23
2017-11-13T03:36:04.143Z,0.97
2017-11-13T03:38:31.603Z,1.13
2017-11-13T03:40:59.077Z,0.97
2017-11-13T03:43:26.523Z,1.23
2017-11-13T03:45:54.063Z,1.43
2017-11-13T03:48:21.549Z,0.80
2017-11-13T03:50:49.030Z,1.20
2017-11-13T03:53:16.518Z,1.03
2017-11-13T03:55:43.981Z,0.80
2017-11-13T03:58:11.435Z,0.80
2017-11-13T04:00:38.918Z,0.97
2017-11-13T04:03:06.415Z,0.93
2017-11-13T04:05:33.877Z,1.00
2017-11-13T04:08:01.340Z,1.00
2017-11-13T04:10:28.813Z,1.10
2017-11-13T04:12:56.264Z,0.80
2017-11-13T04:15:23.723Z,4.70
2017-11-13T04:17:51.256Z,1.00
2017-11-13T04:20:18.702Z,1.03
2017-11-13T04:22:46.169Z,1.20
2017-11-13T04:25:13.664Z,1.00
2017-11-13T04:27:41.120Z,1.57
2017-11-13T04:30:08.573Z,1.10
2017-11-13T04:32:36.045Z,1.40
2017-11-13T04:35:03.518Z,1.70
2017-11-13T04:37:30.970Z,1.20
2017-11-13T04:39:58.487Z,1.13
2017-11-13T04:42:25.941Z,1.10
2017-11-13T04:44:53.404Z,1.50
2017-11-13T04:47:20.875Z,1.10
2017-11-13T04:49:48.331Z,1.53
2017-11-13T04:52:15.788Z,1.60
2017-11-13T04:54:43.289Z,1.00
2017-11-13T04:57:10.736Z,1.10
2017-11-13T04:59:38.349Z,4.73
2017-11-13T05:02:05.810Z,1.17
2017-11-13T05:04:33.279Z,2.07
2017-11-13T05:07:00.789Z,2.90
2017-11-13T05:09:28.299Z,2.73
2017-11-13T05:11:55.787Z,1.60
2017-11-13T05:14:23.474Z,1.57
2017-11-13T05:16:50.995Z,1.20
2017-11-13T05:19:18.482Z,1.43
2017-11-13T05:21:45.922Z,1.60
2017-11-13T05:24:13.405Z,1.50
2017-11-13T05:26:40.886Z,1.50
2017-11-13T05:29:08.364Z,1.63
2017-11-13T05:31:35.843Z,1.40
2017-11-13T05:34:03.304Z,1.40
2017-11-13T05:36:30.760Z,1.40
2017-11-13T05:38:58.239Z,1.67
2017-11-13T05:41:25.760Z,1.30
2017-11-13T05:43:53.221Z,1.33
2017-11-13T05:46:20.758Z,1.67
2017-11-13T05:48:48.223Z,1.70
2017-11-13T05:51:15.685Z,1.27
2017-11-13T05:53:43.159Z,1.37
2017-11-13T05:56:10.681Z,1.67
2017-11-13T05:58:38.146Z,1.50
2017-11-13T06:01:05.655Z,1.40
2017-11-13T06:03:33.136Z,1.70
2017-11-13T06:06:00.608Z,1.67
2017-11-13T06:08:28.130Z,1.60
2017-11-13T06:10:55.568Z,3.10
2017-11-13T06:13:23.032Z,1.80
2017-11-13T06:15:50.496Z,1.80
2017-11-13T06:18:17.953Z,1.77
2017-11-13T06:20:45.459Z,1.90
2017-11-13T06:23:12.937Z,1.63
2017-11-13T06:25:40.436Z,1.60
2017-11-13T06:28:07.888Z,1.63
2017-11-13T06:30:35.400Z,2.10
2017-11-13T06:33:02.871Z,1.80
2017-11-13T06:35:30.325Z,1.60
2017-11-13T06:37:57.820Z,1.73
2017-11-13T06:40:25.343Z,2.20
2017-11-13T06:42:52.842Z,3.40
2017-11-13T06:45:20.380Z,2.00
2017-11-13T06:47:53.710Z,2.87
2017-11-13T06:50:21.189Z,2.17
2017-11-13T06:52:48.711Z,3.03
2017-11-13T06:55:16.188Z,2.23
2017-11-13T06:57:43.672Z,2.93
2017-11-13T07:00:11.131Z,3.30
2017-11-13T07:02:38.590Z,2.90
2017-11-13T07:05:06.091Z,3.17
2017-11-13T07:07:33.587Z,2.40
2017-11-13T07:10:01.059Z,2.60
2017-11-13T07:12:28.559Z,2.10
2017-11-13T07:14:56.009Z,2.90
2017-11-13T07:17:23.462Z,2.40
2017-11-13T07:19:50.952Z,2.10
2017-11-13T07:22:18.426Z,7.93
2017-11-13T07:24:45.887Z,4.30
2017-11-13T07:27:13.374Z,2.30
2017-11-13T07:29:40.857Z,4.00
2017-11-13T07:32:08.323Z,3.70
2017-11-13T07:34:35.803Z,2.83
2017-11-13T07:37:03.287Z,2.20
2017-11-13T07:39:30.735Z,2.30
2017-11-13T07:41:58.683Z,2.70
2017-11-13T07:44:26.164Z,3.90
2017-11-13T07:46:53.628Z,3.57
2017-11-13T07:49:21.085Z,3.00
2017-11-13T07:51:48.558Z,3.30
2017-11-13T07:54:16.040Z,2.43
2017-11-13T07:56:43.519Z,2.47
2017-11-13T07:59:10.982Z,2.70
2017-11-13T08:01:38.460Z,2.50
2017-11-13T08:04:05.941Z,2.70
2017-11-13T08:06:33.412Z,2.73
2017-11-13T08:09:00.875Z,3.23
2017-11-13T08:11:28.349Z,2.53
2017-11-13T08:13:55.816Z,2.70
2017-11-13T08:16:23.314Z,2.67
2017-11-13T08:18:50.813Z,2.67
2017-11-13T08:21:18.318Z,3.17
2017-11-13T08:23:45.798Z,2.83
2017-11-13T08:26:13.305Z,2.93
2017-11-13T08:28:40.766Z,2.57
2017-11-13T08:31:08.236Z,11.57
2017-11-13T08:33:35.741Z,3.00
2017-11-13T08:36:03.310Z,4.63
2017-11-13T08:38:30.796Z,3.47
2017-11-13T08:40:58.268Z,5.07
2017-11-13T08:43:25.751Z,3.40
2017-11-13T08:45:53.244Z,3.10
2017-11-13T08:48:20.746Z,3.00
2017-11-13T08:50:48.234Z,3.30
2017-11-13T08:53:15.688Z,6.60
2017-11-13T08:55:43.178Z,8.10
2017-11-13T08:58:10.672Z,5.33
2017-11-13T09:00:38.338Z,3.97
2017-11-13T09:03:05.860Z,3.53
2017-11-13T09:05:33.317Z,3.47
2017-11-13T09:08:00.779Z,7.00
2017-11-13T09:10:28.274Z,5.60
2017-11-13T09:12:55.795Z,4.50
2017-11-13T09:15:23.262Z,3.33
2017-11-13T09:17:50.767Z,3.30
2017-11-13T09:20:18.252Z,3.10
2017-11-13T09:22:45.726Z,5.23
2017-11-13T09:25:13.207Z,8.30
2017-11-13T09:27:40.709Z,3.27
2017-11-13T09:30:08.196Z,3.67
2017-11-13T09:32:35.661Z,3.90
2017-11-13T09:35:03.122Z,2.60
2017-11-13T09:37:30.587Z,3.40
2017-11-13T09:39:58.102Z,3.27
2017-11-13T09:42:25.621Z,3.13
2017-11-13T09:44:53.122Z,3.87
2017-11-13T09:47:20.589Z,3.90
2017-11-13T09:49:48.060Z,3.97
2017-11-13T09:52:15.540Z,4.30
2017-11-13T09:54:43.052Z,3.87
2017-11-13T09:57:10.539Z,4.27
2017-11-13T09:59:38.173Z,3.73
2017-11-13T10:02:05.675Z,3.23
2017-11-13T10:04:33.162Z,3.20
2017-11-13T10:07:01.119Z,3.67
2017-11-13T10:09:28.623Z,3.87
2017-11-13T10:11:56.108Z,3.73
2017-11-13T10:14:23.589Z,3.90
2017-11-13T10:16:51.277Z,4.20
2017-11-13T10:19:18.773Z,3.90
2017-11-13T10:21:46.255Z,5.33
2017-11-13T10:24:13.733Z,4.60
2017-11-13T10:26:41.248Z,4.37
2017-11-13T10:29:08.711Z,4.20
2017-11-13T10:31:36.232Z,3.73
2017-11-13T10:34:03.687Z,4.10
2017-11-13T10:36:31.180Z,4.13
2017-11-13T10:38:58.661Z,4.20
2017-11-13T10:41:26.122Z,3.97
2017-11-13T10:43:53.564Z,4.50
2017-11-13T10:46:21.040Z,4.13
2017-11-13T10:48:48.513Z,8.20
2017-11-13T10:51:15.998Z,5.90
2017-11-13T10:53:43.499Z,4.57
2017-11-13T10:56:10.990Z,14.20
2017-11-13T10:58:38.575Z,4.40
2017-11-13T11:01:06.077Z,6.50
2017-11-13T11:03:33.576Z,4.50
2017-11-13T11:06:01.053Z,4.90
2017-11-13T11:08:28.567Z,4.50
2017-11-13T11:10:56.047Z,6.87
2017-11-13T11:13:29.550Z,6.20
2017-11-13T11:15:57.801Z,5.33
2017-11-13T11:18:28.800Z,5.10
2017-11-13T11:20:56.298Z,4.77
2017-11-13T11:23:27.294Z,4.73
2017-11-13T11:25:55.171Z,5.17
2017-11-13T11:28:27.032Z,5.73
2017-11-13T11:31:00.899Z,5.40
2017-11-13T11:36:32.360Z,5.30
2017-11-13T11:38:59.846Z,5.43
2017-11-13T11:41:27.351Z,8.07
2017-11-13T11:43:55.248Z,7.40
2017-11-13T11:46:22.769Z,5.93
2017-11-13T11:48:52.792Z,5.17
2017-11-13T11:51:20.276Z,5.33
2017-11-13T11:53:50.675Z,5.60
2017-11-13T11:56:23.825Z,4.90
2017-11-13T11:58:51.329Z,5.53
2017-11-13T12:01:18.839Z,5.67
2017-11-13T12:03:46.312Z,5.33
2017-11-13T12:06:14.055Z,4.83
2017-11-13T12:08:41.579Z,5.07
2017-11-13T12:11:09.059Z,5.77
2017-11-13T12:13:36.539Z,6.03
2017-11-13T12:16:04.027Z,4.90
2017-11-13T12:18:31.479Z,5.10
2017-11-13T12:20:58.958Z,4.10
2017-11-13T12:23:26.420Z,5.07
2017-11-13T12:25:53.865Z,5.40
2017-11-13T12:28:21.359Z,4.70
2017-11-13T12:30:48.821Z,4.57
2017-11-13T12:33:16.295Z,5.20
2017-11-13T12:35:43.783Z,4.63
2017-11-13T12:38:11.235Z,5.20
2017-11-13T12:40:38.694Z,4.60
2017-11-13T12:43:06.197Z,5.97
2017-11-13T12:45:33.673Z,5.27
2017-11-13T12:48:01.289Z,4.77
2017-11-13T12:50:28.779Z,4.97
2017-11-13T12:52:56.290Z,7.20
2017-11-13T12:55:23.788Z,4.90
2017-11-13T12:57:51.314Z,4.37
2017-11-13T13:00:18.883Z,5.70
2017-11-13T13:02:46.368Z,5.00
2017-11-13T13:05:13.871Z,5.10
2017-11-13T13:07:41.332Z,5.93
2017-11-13T13:10:08.799Z,11.37
2017-11-13T13:12:36.729Z,5.90
2017-11-13T13:15:04.230Z,5.50
2017-11-13T13:17:31.773Z,4.37
2017-11-13T13:19:59.264Z,4.83
2017-11-13T13:22:26.766Z,4.63
2017-11-13T13:24:54.283Z,4.40
2017-11-13T13:27:21.764Z,4.43
2017-11-13T13:29:49.239Z,5.67
2017-11-13T13:32:16.750Z,5.20
2017-11-13T13:34:44.272Z,5.07
2017-11-13T13:37:11.747Z,4.40
2017-11-13T13:39:39.244Z,4.60
2017-11-13T13:42:23.549Z,5.10
2017-11-13T13:44:51.036Z,5.50
2017-11-13T13:47:18.510Z,3.93
2017-11-13T13:49:46.001Z,4.87
2017-11-13T13:52:13.479Z,12.03
2017-11-13T13:54:40.960Z,9.10
2017-11-13T13:57:08.462Z,12.23
2017-11-13T13:59:35.986Z,6.07
2017-11-13T14:02:03.467Z,5.20
2017-11-13T14:04:30.968Z,5.23
2017-11-13T14:06:58.482Z,4.90
2017-11-13T14:09:25.957Z,6.23
2017-11-13T14:11:53.443Z,7.83
2017-11-13T14:14:20.956Z,5.10
2017-11-13T14:16:48.421Z,4.87
2017-11-13T14:19:15.914Z,5.93
2017-11-13T14:21:43.382Z,5.10
2017-11-13T14:24:10.862Z,5.20
2017-11-13T14:26:38.353Z,5.20
2017-11-13T14:29:05.838Z,5.10
2017-11-13T14:31:33.369Z,4.70
2017-11-13T14:34:00.829Z,5.10
2017-11-13T14:36:28.278Z,4.50
2017-11-13T14:38:55.752Z,5.83
2017-11-13T14:41:23.265Z,4.70
2017-11-13T14:43:50.739Z,4.67
2017-11-13T14:46:18.218Z,5.60
2017-11-13T14:48:45.701Z,5.40
2017-11-13T14:51:13.195Z,5.20
2017-11-13T14:53:40.668Z,9.00
2017-11-13T14:56:08.145Z,8.30
2017-11-13T14:58:35.609Z,6.97
2017-11-13T15:01:03.097Z,8.43
2017-11-13T15:03:30.622Z,4.90
2017-11-13T15:05:58.119Z,4.60
2017-11-13T15:08:25.593Z,4.20
2017-11-13T15:10:53.070Z,8.90
2017-11-13T15:13:20.614Z,5.10
2017-11-13T15:15:48.092Z,6.20
2017-11-13T15:18:15.602Z,5.93
2017-11-13T15:20:43.068Z,5.00
2017-11-13T15:23:10.556Z,4.90
2017-11-13T15:25:38.046Z,4.90
2017-11-13T15:28:05.533Z,4.50
2017-11-13T15:30:33.022Z,4.20
2017-11-13T15:33:00.485Z,4.50
2017-11-13T15:35:27.981Z,4.17
2017-11-13T15:37:55.434Z,8.50
2017-11-13T15:40:22.907Z,5.30
2017-11-13T15:42:50.387Z,5.33
2017-11-13T15:45:17.883Z,4.67
2017-11-13T15:47:45.480Z,6.00
2017-11-13T15:50:12.951Z,5.63
2017-11-13T15:52:40.443Z,5.20
2017-11-13T15:55:07.942Z,5.17
2017-11-13T15:57:35.414Z,6.20
2017-11-13T16:00:02.893Z,4.50
2017-11-13T16:02:30.381Z,4.13
2017-11-13T16:04:57.863Z,4.13
2017-11-13T16:07:25.380Z,5.10
2017-11-13T16:09:52.871Z,5.30
2017-11-13T16:12:20.358Z,5.17
2017-11-13T16:14:47.838Z,4.50
2017-11-13T16:17:15.318Z,4.03
2017-11-13T16:19:42.815Z,5.47
2017-11-13T16:22:10.279Z,5.23
2017-11-13T16:24:37.778Z,8.30
2017-11-13T16:27:05.265Z,6.03
2017-11-13T16:29:32.743Z,4.50
2017-11-13T16:32:00.245Z,5.33
2017-11-13T16:34:27.785Z,4.83
2017-11-13T16:36:55.243Z,4.70
2017-11-13T16:39:22.733Z,4.33
2017-11-13T16:41:50.225Z,4.60
2017-11-13T16:44:17.692Z,5.90
2017-11-13T16:46:45.202Z,8.60
2017-11-13T16:49:12.661Z,5.37
2017-11-13T16:51:40.135Z,4.67
2017-11-13T16:54:07.626Z,5.40
2017-11-13T16:56:35.090Z,5.10
2017-11-13T16:59:02.554Z,5.40
2017-11-13T17:01:30.022Z,5.67
2017-11-13T17:03:57.482Z,5.70
2017-11-13T17:06:24.968Z,5.93
2017-11-13T17:08:52.429Z,6.50
2017-11-13T17:11:19.902Z,5.87
2017-11-13T17:13:47.429Z,5.53
2017-11-13T17:16:14.914Z,9.23
2017-11-13T17:18:42.400Z,6.07
2017-11-13T17:21:09.880Z,6.30
2017-11-13T17:23:37.368Z,5.97
2017-11-13T17:26:04.858Z,6.10
2017-11-13T17:28:32.349Z,5.70
2017-11-13T17:30:59.843Z,6.57
2017-11-13T17:33:27.355Z,6.20
2017-11-13T17:35:54.827Z,6.80
2017-11-13T17:38:22.359Z,5.27
2017-11-13T17:40:49.817Z,4.70
2017-11-13T17:43:17.292Z,4.93
2017-11-13T17:45:45.212Z,6.97
2017-11-13T17:48:12.678Z,5.77
2017-11-13T17:50:40.150Z,5.53
2017-11-13T17:53:07.624Z,6.40
2017-11-13T17:55:35.093Z,4.93
2017-11-13T17:58:02.584Z,5.37
2017-11-13T18:00:30.090Z,6.50
2017-11-13T18:02:57.775Z,5.27
2017-11-13T18:05:25.285Z,5.33
2017-11-13T18:07:52.772Z,5.07
2017-11-13T18:10:20.275Z,9.57
2017-11-13T18:12:47.748Z,7.63
2017-11-13T18:15:15.269Z,5.50
2017-11-13T18:17:42.772Z,6.10
2017-11-13T18:20:10.244Z,5.70
2017-11-13T18:22:37.736Z,5.87
2017-11-13T18:25:05.202Z,4.97
2017-11-13T18:27:32.712Z,7.33
2017-11-13T18:30:00.199Z,5.57
2017-11-13T18:32:27.738Z,6.13
2017-11-13T18:34:55.191Z,5.50
2017-11-13T18:37:22.676Z,7.10
2017-11-13T18:39:50.134Z,5.33
2017-11-13T18:42:17.619Z,6.13
2017-11-13T18:44:45.127Z,6.30
2017-11-13T18:47:12.607Z,9.90
2017-11-13T18:49:40.116Z,6.13
2017-11-13T18:52:07.615Z,6.77
2017-11-13T18:54:35.106Z,8.40
2017-11-13T18:57:02.635Z,6.33
2017-11-13T18:59:30.159Z,6.97
2017-11-13T19:01:57.620Z,7.70
2017-11-13T19:04:25.106Z,6.90
2017-11-13T19:06:52.591Z,7.97
2017-11-13T19:09:20.040Z,6.43
2017-11-13T19:11:47.503Z,7.37
2017-11-13T19:14:15.020Z,10.80
2017-11-13T19:16:42.492Z,9.70
2017-11-13T19:19:09.987Z,7.80
2017-11-13T19:21:37.501Z,7.33
2017-11-13T19:24:04.988Z,7.07
2017-11-13T19:26:32.542Z,6.87
2017-11-13T19:29:00.002Z,7.87
2017-11-13T19:31:27.468Z,6.60
2017-11-13T19:33:54.921Z,7.00
2017-11-13T19:36:23.161Z,10.03
2017-11-13T19:38:50.631Z,7.47
2017-11-13T19:41:18.129Z,8.97
2017-11-13T19:43:45.643Z,9.77
2017-11-13T19:46:13.306Z,8.03
2017-11-13T19:48:40.781Z,8.77
2017-11-13T19:51:08.304Z,8.90
2017-11-13T19:53:35.768Z,8.97
2017-11-13T19:56:03.316Z,12.10
2017-11-13T19:58:30.803Z,8.67
2017-11-13T20:00:58.321Z,7.50
2017-11-13T20:03:25.769Z,7.67
2017-11-13T20:05:53.270Z,7.93
2017-11-13T20:08:20.846Z,8.77
2017-11-13T20:10:48.340Z,8.93
2017-11-13T20:13:15.834Z,8.80
2017-11-13T20:15:43.322Z,8.00
2017-11-13T20:18:10.804Z,8.17
2017-11-13T20:20:38.303Z,8.23
2017-11-13T20:23:05.782Z,7.70
2017-11-13T20:25:33.276Z,9.07
2017-11-13T20:28:00.792Z,8.67
2017-11-13T20:30:28.251Z,9.07
2017-11-13T20:32:55.767Z,7.43
2017-11-13T20:35:23.402Z,8.13
2017-11-13T20:37:50.871Z,9.57
2017-11-13T20:40:18.349Z,8.13
2017-11-13T20:42:45.868Z,7.80
2017-11-13T20:45:13.396Z,10.50
2017-11-13T20:47:40.925Z,9.03
2017-11-13T20:50:08.441Z,9.57
2017-11-13T20:52:35.968Z,9.53
2017-11-13T20:55:03.483Z,9.20
2017-11-13T20:57:31.022Z,9.17
2017-11-13T20:59:58.565Z,7.63
2017-11-13T21:02:26.062Z,8.03
2017-11-13T21:04:53.548Z,9.63
2017-11-13T21:07:21.046Z,10.97
2017-11-13T21:09:48.535Z,10.20
2017-11-13T21:12:16.021Z,9.60
2017-11-13T21:14:43.512Z,8.20
2017-11-13T21:17:11.040Z,9.33
2017-11-13T21:19:39.180Z,9.10
2017-11-13T21:22:06.679Z,14.50
2017-11-13T21:24:34.240Z,8.00
2017-11-13T21:27:01.733Z,7.80
2017-11-13T21:29:29.293Z,7.83
2017-11-13T21:31:56.787Z,8.80
2017-11-13T21:34:24.331Z,7.93
2017-11-13T21:36:51.871Z,7.67
2017-11-13T21:39:19.466Z,9.00
2017-11-13T21:41:46.989Z,8.07
2017-11-13T21:44:14.486Z,9.70
2017-11-13T21:46:41.977Z,9.80
2017-11-13T21:49:09.481Z,8.13
2017-11-13T21:51:36.996Z,8.93
2017-11-13T21:54:04.505Z,10.63
2017-11-13T21:56:31.983Z,7.57
2017-11-13T21:58:59.490Z,11.10
2017-11-13T22:01:27.002Z,8.93
2017-11-13T22:03:54.581Z,8.17
2017-11-13T22:06:22.096Z,9.00
2017-11-13T22:08:49.608Z,11.47
2017-11-13T22:11:17.123Z,8.77
2017-11-13T22:13:44.618Z,10.17
2017-11-13T22:16:12.118Z,8.43
2017-11-13T22:18:39.633Z,8.10
2017-11-13T22:21:07.159Z,8.77
2017-11-13T22:23:34.684Z,17.47
2017-11-13T22:26:02.159Z,9.67
2017-11-13T22:28:29.656Z,11.47
2017-11-13T22:30:57.148Z,11.60
2017-11-13T22:33:24.670Z,10.10
2017-11-13T22:35:52.162Z,9.40
2017-11-13T22:38:19.735Z,10.60
2017-11-13T22:40:47.343Z,13.13
2017-11-13T22:43:14.854Z,10.10
2017-11-13T22:45:42.351Z,10.20
2017-11-13T22:48:09.849Z,9.67
2017-11-13T22:50:37.382Z,13.33
2017-11-13T22:53:05.074Z,13.77
2017-11-13T22:55:32.593Z,12.00
2017-11-13T22:58:00.141Z,12.50
2017-11-13T23:00:27.645Z,12.33
2017-11-13T23:02:55.281Z,12.97
